Sunday, November 18, 2018, 3:12 PM GMT
Back to Local

CYBG, Bagotville, Que.

Location: , , Canada Lat: 48.333
Local Time: 3:12 PM GMT (15:12 GMT) Lon: -71
Time Zone: GMT Elev: 521 ft

Show me the last for .
Show Decoded

2018-11-18 15:00 METAR CYBG 181500Z 00000KT 25SM FEW030 M10/M13 A3029 RMK SC2 SLP271 =
2018-11-18 14:00 METAR CYBG 181400Z 00000KT 6SM -SHSN OVC040 M11/M14 A3030 RMK SC8 SLP272 =
2018-11-18 13:00 METAR CYBG 181300Z 30006KT 7SM -SHSN OVC040 M11/M15 A3029 RMK SC8 SLP269 =
2018-11-18 12:00 METAR CYBG 181200Z 29003KT 15SM -SHSN BKN035 OVC050 M11/M14 A3027 RMK SC6SC2
                 SLP264 =
2018-11-18 11:00 METAR CYBG 181100Z 29005KT 15SM -SHSN OVC040 M11/M14 A3025 RMK SC8 SLP257 =
2018-11-18 10:00 METAR CYBG 181000Z 28006KT 15SM -SHSN OVC035 M10/M13 A3023 RMK SC8 SLP251 =
2018-11-18 09:00 METAR CYBG 180900Z 28008KT 15SM -SHSN OVC032 M10/M14 A3022 RMK SC8 SLP246 =
2018-11-18 08:00 METAR CYBG 180800Z 27011G17KT 15SM -SHSN OVC030 M10/M14 A3022 RMK SC8 SLP245 =
2018-11-18 07:00 METAR CYBG 180700Z 28010G16KT 8SM -SHSN OVC032 M10/M13 A3020 RMK SC8 SLP240 =
2018-11-18 06:00 METAR CYBG 180600Z 28012G22KT 8SM -SHSN OVC030 M09/M12 A3018 RMK SC8 SLP230 =
2018-11-18 05:00 METAR CYBG 180500Z 28009G15KT 15SM -SHSN SCT018 OVC030 M08/M11 A3015 RMK SC3SC5
                 SLP221 =
2018-11-18 04:00 METAR CYBG 180400Z 29014KT 15SM -SHSN OVC030 M07/M11 A3012 RMK SC8 SLP211 =
2018-11-18 03:00 METAR CYBG 180300Z 29009G15KT 15SM -SHSN OVC030 M06/M10 A3010 RMK SC8 SLP204 =
2018-11-18 02:00 METAR CYBG 180200Z 27013KT 15SM -SHSN OVC025 M05/M09 A3007 RMK SC8 SLP193 =
2018-11-18 01:00 METAR CYBG 180100Z 27014KT 12SM -SHSN OVC032 M05/M07 A3004 RMK SC8 SLP184 =
2018-11-18 00:00 METAR CYBG 180000Z 27014KT 15SM -SHSN BKN040 M05/M07 A3001 RMK SC6 PCPN VRY LGT
                 SLP175 =
2018-11-17 23:00 METAR CYBG 172300Z 26016G21KT 15SM -SHSN BKN040 M04/M06 A2998 RMK SC6 PCPN VRY
                 LGT SLP163 =
2018-11-17 22:19 METAR CYBG 172219Z 26015KT 15SM -SHSN SCT046 M04/M07 A2996 RMK SC4 PCPN VRY LGT
                 SLP157 =
2018-11-17 22:00 METAR CYBG 172200Z 26013KT 20SM SCT046 M04/M07 A2995 RMK SC3 SLP152 =
2018-11-17 21:00 METAR CYBG 172100Z 26013G18KT 10SM FEW015 BKN063 M04/M06 A2992 RMK SC1SC6 SLP143
                 =
2018-11-17 20:00 METAR CYBG 172000Z 27019KT 5SM -SN BLSN FEW015 OVC050 M03/M05 A2989 RMK SC2SC6
                 SLP132 =
2018-11-17 19:28 METAR CYBG 171928Z 27019G26KT 3SM -SN BLSN OVC041 M03/M05 A2987 RMK SN4SC4 VIS
                 VRB 2-4 SLP126 =
2018-11-17 19:00 METAR CYBG 171900Z 26019G25KT 1SM R11/P6000FT -SN BLSN VV010 M03/M04 A2985 RMK
                 SN8 VIS VRB 3/4-1 1/4 SLP120 =
2018-11-17 18:22 METAR CYBG 171822Z 28015KT 1 1/2SM -SN DRSN VV012 M02/M04 A2983 RMK SN8 VIS VRB
                 1-2 SLP112 =
2018-11-17 18:00 METAR CYBG 171800Z 27013KT 3SM -SN DRSN BKN021 OVC054 M02/M03 A2982 RMK
                 SN3SC2SC2 VIS VRB 2-4 SLP108 =
2018-11-17 17:43 METAR CYBG 171743Z 27014KT 3SM -SN DRSN BKN021 BKN036 M01/M04 A2981 RMK SC6SC1
                 VIS VRB 2-4 CIG VRB 15-27 SLP106 =
2018-11-17 17:19 METAR CYBG 171719Z 26014KT 6SM -SN DRSN BKN021 OVC032 M01/M05 A2980 RMK SC6SC2
                 CIG VRB 15-27 SLP102 =
2018-11-17 17:00 METAR CYBG 171700Z 24014KT 6SM -SN DRSN SCT021 OVC036 M01/M05 A2980 RMK SC3SC5
                 SLP102 =
2018-11-17 16:00 METAR CYBG 171600Z 25012G17KT 3SM -SN BLSN BKN025 M02/M04 A2979 RMK SN3SC4 VIS
                 VRB 2-4 SLP097 =

Support USWX by starting your Amazon purchase here.